sensor_id;sensor_type;location;lat;lon;timestamp;P1;durP1;ratioP1;P2;durP2;ratioP2
16600;SDS011;34891;48.164;11.572;2022-07-23T00:00:27;9.25;;;5.78;;
16600;SDS011;34891;48.164;11.572;2022-07-23T00:05:39;7.93;;;5.15;;
16600;SDS011;34891;48.164;11.572;2022-07-23T00:10:42;9.85;;;4.65;;
16600;SDS011;34891;48.164;11.572;2022-07-23T00:15:46;9.23;;;5.75;;
16600;SDS011;34891;48.164;11.572;2022-07-23T00:20:49;5.63;;;3.75;;
16600;SDS011;34891;48.164;11.572;2022-07-23T00:25:52;7.22;;;3.40;;
16600;SDS011;34891;48.164;11.572;2022-07-23T00:30:56;7.25;;;4.78;;
16600;SDS011;34891;48.164;11.572;2022-07-23T00:36:00;7.65;;;5.10;;
16600;SDS011;34891;48.164;11.572;2022-07-23T00:41:03;8.30;;;3.67;;
16600;SDS011;34891;48.164;11.572;2022-07-23T00:46:07;8.20;;;4.90;;
16600;SDS011;34891;48.164;11.572;2022-07-23T00:51:10;8.27;;;5.60;;
16600;SDS011;34891;48.164;11.572;2022-07-23T00:56:13;9.80;;;4.25;;
16600;SDS011;34891;48.164;11.572;2022-07-23T01:01:17;6.63;;;4.20;;
16600;SDS011;34891;48.164;11.572;2022-07-23T01:06:21;8.57;;;5.68;;
16600;SDS011;34891;48.164;11.572;2022-07-23T01:11:24;10.02;;;5.53;;
16600;SDS011;34891;48.164;11.572;2022-07-23T01:16:38;11.07;;;6.03;;
16600;SDS011;34891;48.164;11.572;2022-07-23T01:21:47;10.93;;;6.20;;
16600;SDS011;34891;48.164;11.572;2022-07-23T01:26:53;9.80;;;5.50;;
16600;SDS011;34891;48.164;11.572;2022-07-23T01:31:58;10.82;;;6.35;;
16600;SDS011;34891;48.164;11.572;2022-07-23T01:37:04;14.00;;;5.57;;
16600;SDS011;34891;48.164;11.572;2022-07-23T01:42:20;8.00;;;4.53;;
16600;SDS011;34891;48.164;11.572;2022-07-23T01:47:23;8.98;;;4.80;;
16600;SDS011;34891;48.164;11.572;2022-07-23T01:57:32;9.18;;;4.90;;
16600;SDS011;34891;48.164;11.572;2022-07-23T02:02:34;10.52;;;4.68;;
16600;SDS011;34891;48.164;11.572;2022-07-23T02:07:38;8.65;;;5.40;;
16600;SDS011;34891;48.164;11.572;2022-07-23T02:12:42;14.38;;;5.35;;
16600;SDS011;34891;48.164;11.572;2022-07-23T02:17:47;8.93;;;4.82;;
16600;SDS011;34891;48.164;11.572;2022-07-23T02:22:51;12.73;;;5.55;;
16600;SDS011;34891;48.164;11.572;2022-07-23T02:27:55;10.93;;;4.53;;
16600;SDS011;34891;48.164;11.572;2022-07-23T02:32:58;8.27;;;3.90;;
16600;SDS011;34891;48.164;11.572;2022-07-23T02:38:02;7.10;;;3.47;;
16600;SDS011;34891;48.164;11.572;2022-07-23T02:48:09;5.85;;;3.38;;
16600;SDS011;34891;48.164;11.572;2022-07-23T02:53:15;5.55;;;3.10;;
16600;SDS011;34891;48.164;11.572;2022-07-23T02:58:18;6.00;;;3.45;;
16600;SDS011;34891;48.164;11.572;2022-07-23T03:03:22;8.55;;;3.85;;
16600;SDS011;34891;48.164;11.572;2022-07-23T03:08:30;3.47;;;2.28;;
16600;SDS011;34891;48.164;11.572;2022-07-23T03:13:33;6.50;;;3.25;;
16600;SDS011;34891;48.164;11.572;2022-07-23T03:18:38;5.88;;;3.17;;
16600;SDS011;34891;48.164;11.572;2022-07-23T03:23:41;2.25;;;1.38;;
16600;SDS011;34891;48.164;11.572;2022-07-23T03:28:44;7.43;;;3.50;;
16600;SDS011;34891;48.164;11.572;2022-07-23T03:33:48;5.00;;;2.83;;
16600;SDS011;34891;48.164;11.572;2022-07-23T03:38:51;2.50;;;1.73;;
16600;SDS011;34891;48.164;11.572;2022-07-23T03:48:59;6.47;;;1.83;;
16600;SDS011;34891;48.164;11.572;2022-07-23T03:54:03;7.05;;;3.92;;
16600;SDS011;34891;48.164;11.572;2022-07-23T03:59:07;7.25;;;3.67;;
16600;SDS011;34891;48.164;11.572;2022-07-23T04:04:11;7.95;;;3.95;;
16600;SDS011;34891;48.164;11.572;2022-07-23T04:09:14;5.65;;;2.97;;
16600;SDS011;34891;48.164;11.572;2022-07-23T04:14:17;6.55;;;3.50;;
16600;SDS011;34891;48.164;11.572;2022-07-23T04:19:21;7.13;;;4.22;;
16600;SDS011;34891;48.164;11.572;2022-07-23T04:24:24;8.10;;;3.90;;
16600;SDS011;34891;48.164;11.572;2022-07-23T04:29:27;9.68;;;3.80;;
16600;SDS011;34891;48.164;11.572;2022-07-23T04:34:31;6.72;;;3.35;;
16600;SDS011;34891;48.164;11.572;2022-07-23T04:39:34;6.30;;;3.25;;
16600;SDS011;34891;48.164;11.572;2022-07-23T04:44:37;7.43;;;4.28;;
16600;SDS011;34891;48.164;11.572;2022-07-23T04:49:42;8.15;;;4.30;;
16600;SDS011;34891;48.164;11.572;2022-07-23T04:54:44;7.03;;;4.20;;
16600;SDS011;34891;48.164;11.572;2022-07-23T04:59:48;5.00;;;3.42;;
16600;SDS011;34891;48.164;11.572;2022-07-23T05:04:53;5.40;;;3.50;;
16600;SDS011;34891;48.164;11.572;2022-07-23T05:09:56;5.40;;;3.60;;
16600;SDS011;34891;48.164;11.572;2022-07-23T05:15:00;6.32;;;2.88;;
16600;SDS011;34891;48.164;11.572;2022-07-23T05:20:05;9.77;;;4.45;;
16600;SDS011;34891;48.164;11.572;2022-07-23T05:25:09;9.15;;;4.15;;
16600;SDS011;34891;48.164;11.572;2022-07-23T05:30:12;6.13;;;3.80;;
16600;SDS011;34891;48.164;11.572;2022-07-23T05:35:16;6.93;;;3.90;;
16600;SDS011;34891;48.164;11.572;2022-07-23T05:40:20;8.80;;;4.00;;
16600;SDS011;34891;48.164;11.572;2022-07-23T05:45:24;10.93;;;4.57;;
16600;SDS011;34891;48.164;11.572;2022-07-23T05:50:28;10.27;;;4.80;;
16600;SDS011;34891;48.164;11.572;2022-07-23T05:55:31;7.40;;;4.40;;
16600;SDS011;34891;48.164;11.572;2022-07-23T06:00:34;7.55;;;3.15;;
16600;SDS011;34891;48.164;11.572;2022-07-23T06:05:38;5.88;;;3.55;;
16600;SDS011;34891;48.164;11.572;2022-07-23T06:10:41;8.82;;;4.40;;
16600;SDS011;34891;48.164;11.572;2022-07-23T06:15:44;9.50;;;4.07;;
16600;SDS011;34891;48.164;11.572;2022-07-23T06:25:53;7.55;;;4.47;;
16600;SDS011;34891;48.164;11.572;2022-07-23T06:30:56;4.95;;;2.63;;
16600;SDS011;34891;48.164;11.572;2022-07-23T06:35:59;7.25;;;4.07;;
16600;SDS011;34891;48.164;11.572;2022-07-23T06:41:04;6.78;;;4.03;;
16600;SDS011;34891;48.164;11.572;2022-07-23T06:46:07;7.75;;;4.65;;
16600;SDS011;34891;48.164;11.572;2022-07-23T06:51:10;7.90;;;4.70;;
16600;SDS011;34891;48.164;11.572;2022-07-23T06:56:14;8.98;;;5.45;;
16600;SDS011;34891;48.164;11.572;2022-07-23T07:01:17;7.45;;;4.18;;
16600;SDS011;34891;48.164;11.572;2022-07-23T07:11:25;7.60;;;4.45;;
16600;SDS011;34891;48.164;11.572;2022-07-23T07:16:27;8.48;;;5.25;;
16600;SDS011;34891;48.164;11.572;2022-07-23T07:21:34;9.98;;;5.90;;
16600;SDS011;34891;48.164;11.572;2022-07-23T07:31:42;13.93;;;6.80;;
16600;SDS011;34891;48.164;11.572;2022-07-23T07:36:45;9.63;;;5.50;;
16600;SDS011;34891;48.164;11.572;2022-07-23T07:41:49;8.02;;;5.43;;
16600;SDS011;34891;48.164;11.572;2022-07-23T07:46:53;6.35;;;3.83;;
16600;SDS011;34891;48.164;11.572;2022-07-23T07:51:55;7.88;;;4.57;;
16600;SDS011;34891;48.164;11.572;2022-07-23T07:56:59;10.82;;;6.50;;
16600;SDS011;34891;48.164;11.572;2022-07-23T08:07:06;9.33;;;5.30;;
16600;SDS011;34891;48.164;11.572;2022-07-23T08:12:08;10.02;;;6.22;;
16600;SDS011;34891;48.164;11.572;2022-07-23T08:17:12;9.55;;;5.97;;
16600;SDS011;34891;48.164;11.572;2022-07-23T08:22:18;9.60;;;6.15;;
16600;SDS011;34891;48.164;11.572;2022-07-23T08:27:20;9.68;;;5.25;;
16600;SDS011;34891;48.164;11.572;2022-07-23T08:32:23;9.20;;;6.05;;
16600;SDS011;34891;48.164;11.572;2022-07-23T08:37:46;10.70;;;5.05;;
16600;SDS011;34891;48.164;11.572;2022-07-23T08:42:50;7.90;;;4.45;;
16600;SDS011;34891;48.164;11.572;2022-07-23T08:47:55;9.45;;;5.00;;
16600;SDS011;34891;48.164;11.572;2022-07-23T08:52:59;7.45;;;5.13;;
16600;SDS011;34891;48.164;11.572;2022-07-23T08:58:04;5.75;;;4.00;;
16600;SDS011;34891;48.164;11.572;2022-07-23T09:03:09;8.30;;;4.90;;
16600;SDS011;34891;48.164;11.572;2022-07-23T09:08:19;11.27;;;5.85;;
16600;SDS011;34891;48.164;11.572;2022-07-23T09:13:26;7.70;;;4.97;;
16600;SDS011;34891;48.164;11.572;2022-07-23T09:18:34;10.23;;;5.47;;
16600;SDS011;34891;48.164;11.572;2022-07-23T09:23:41;12.02;;;6.13;;
16600;SDS011;34891;48.164;11.572;2022-07-23T09:28:55;8.75;;;6.53;;
16600;SDS011;34891;48.164;11.572;2022-07-23T09:34:08;9.88;;;5.75;;
16600;SDS011;34891;48.164;11.572;2022-07-23T09:39:13;8.57;;;6.05;;
16600;SDS011;34891;48.164;11.572;2022-07-23T09:47:22;7.35;;;6.03;;
16600;SDS011;34891;48.164;11.572;2022-07-23T09:52:26;7.78;;;5.35;;
16600;SDS011;34891;48.164;11.572;2022-07-23T09:57:34;6.10;;;4.63;;
16600;SDS011;34891;48.164;11.572;2022-07-23T10:02:38;7.53;;;5.10;;
16600;SDS011;34891;48.164;11.572;2022-07-23T10:07:41;8.15;;;4.65;;
16600;SDS011;34891;48.164;11.572;2022-07-23T10:12:51;7.67;;;4.73;;
16600;SDS011;34891;48.164;11.572;2022-07-23T10:18:29;6.82;;;4.20;;
16600;SDS011;34891;48.164;11.572;2022-07-23T10:23:34;8.02;;;5.10;;
16600;SDS011;34891;48.164;11.572;2022-07-23T10:34:02;7.05;;;5.38;;
16600;SDS011;34891;48.164;11.572;2022-07-23T10:39:11;6.20;;;4.80;;
16600;SDS011;34891;48.164;11.572;2022-07-23T10:44:18;6.30;;;4.90;;
16600;SDS011;34891;48.164;11.572;2022-07-23T10:49:25;6.00;;;4.53;;
16600;SDS011;34891;48.164;11.572;2022-07-23T10:54:30;6.65;;;4.80;;
16600;SDS011;34891;48.164;11.572;2022-07-23T11:05:00;7.47;;;4.90;;
16600;SDS011;34891;48.164;11.572;2022-07-23T11:10:03;5.55;;;4.07;;
16600;SDS011;34891;48.164;11.572;2022-07-23T11:15:08;4.53;;;3.50;;
16600;SDS011;34891;48.164;11.572;2022-07-23T11:20:22;5.05;;;3.25;;
16600;SDS011;34891;48.164;11.572;2022-07-23T11:25:32;7.80;;;5.15;;
16600;SDS011;34891;48.164;11.572;2022-07-23T11:30:39;7.85;;;5.28;;
16600;SDS011;34891;48.164;11.572;2022-07-23T11:35:44;7.65;;;4.50;;
16600;SDS011;34891;48.164;11.572;2022-07-23T11:40:50;7.25;;;4.72;;
16600;SDS011;34891;48.164;11.572;2022-07-23T11:45:54;6.65;;;4.35;;
16600;SDS011;34891;48.164;11.572;2022-07-23T11:51:00;8.50;;;5.57;;
16600;SDS011;34891;48.164;11.572;2022-07-23T11:56:05;10.23;;;5.38;;
16600;SDS011;34891;48.164;11.572;2022-07-23T12:01:08;9.73;;;6.05;;
16600;SDS011;34891;48.164;11.572;2022-07-23T12:06:15;10.00;;;5.80;;
16600;SDS011;34891;48.164;11.572;2022-07-23T12:11:18;7.45;;;5.18;;
16600;SDS011;34891;48.164;11.572;2022-07-23T12:16:21;11.77;;;7.10;;
16600;SDS011;34891;48.164;11.572;2022-07-23T12:21:25;9.13;;;5.95;;
16600;SDS011;34891;48.164;11.572;2022-07-23T12:26:28;8.15;;;5.43;;
16600;SDS011;34891;48.164;11.572;2022-07-23T12:31:31;9.13;;;6.07;;
16600;SDS011;34891;48.164;11.572;2022-07-23T12:53:09;7.07;;;3.85;;
16600;SDS011;34891;48.164;11.572;2022-07-23T12:58:19;7.75;;;4.53;;
16600;SDS011;34891;48.164;11.572;2022-07-23T13:03:25;8.52;;;5.75;;
16600;SDS011;34891;48.164;11.572;2022-07-23T13:08:30;8.93;;;4.95;;
16600;SDS011;34891;48.164;11.572;2022-07-23T13:13:34;8.77;;;6.45;;
16600;SDS011;34891;48.164;11.572;2022-07-23T13:18:38;9.02;;;6.22;;
16600;SDS011;34891;48.164;11.572;2022-07-23T13:23:43;7.63;;;4.82;;
16600;SDS011;34891;48.164;11.572;2022-07-23T13:28:46;9.02;;;6.25;;
16600;SDS011;34891;48.164;11.572;2022-07-23T13:33:50;7.80;;;4.88;;
16600;SDS011;34891;48.164;11.572;2022-07-23T13:38:55;8.00;;;4.95;;
16600;SDS011;34891;48.164;11.572;2022-07-23T13:43:58;9.05;;;4.68;;
16600;SDS011;34891;48.164;11.572;2022-07-23T13:49:03;10.43;;;5.80;;
16600;SDS011;34891;48.164;11.572;2022-07-23T13:54:08;7.90;;;5.90;;
16600;SDS011;34891;48.164;11.572;2022-07-23T13:59:11;8.88;;;5.65;;
16600;SDS011;34891;48.164;11.572;2022-07-23T14:04:14;9.90;;;5.90;;
16600;SDS011;34891;48.164;11.572;2022-07-23T14:09:21;9.32;;;6.15;;
16600;SDS011;34891;48.164;11.572;2022-07-23T14:14:26;10.50;;;6.38;;
16600;SDS011;34891;48.164;11.572;2022-07-23T14:19:29;9.68;;;5.65;;
16600;SDS011;34891;48.164;11.572;2022-07-23T14:24:33;11.52;;;6.68;;
16600;SDS011;34891;48.164;11.572;2022-07-23T14:29:36;10.07;;;5.68;;
16600;SDS011;34891;48.164;11.572;2022-07-23T14:34:39;10.02;;;5.85;;
16600;SDS011;34891;48.164;11.572;2022-07-23T14:39:44;9.25;;;6.05;;
16600;SDS011;34891;48.164;11.572;2022-07-23T14:44:50;9.05;;;5.10;;
16600;SDS011;34891;48.164;11.572;2022-07-23T14:49:54;10.05;;;6.25;;
16600;SDS011;34891;48.164;11.572;2022-07-23T14:54:59;9.82;;;5.78;;
16600;SDS011;34891;48.164;11.572;2022-07-23T15:00:03;7.97;;;5.20;;
16600;SDS011;34891;48.164;11.572;2022-07-23T15:05:06;7.30;;;4.72;;
16600;SDS011;34891;48.164;11.572;2022-07-23T15:10:11;9.32;;;5.53;;
16600;SDS011;34891;48.164;11.572;2022-07-23T15:15:13;9.82;;;5.75;;
16600;SDS011;34891;48.164;11.572;2022-07-23T15:20:38;9.05;;;4.95;;
16600;SDS011;34891;48.164;11.572;2022-07-23T15:25:45;9.85;;;5.35;;
16600;SDS011;34891;48.164;11.572;2022-07-23T15:31:00;6.28;;;4.47;;
16600;SDS011;34891;48.164;11.572;2022-07-23T15:36:29;7.35;;;5.53;;
16600;SDS011;34891;48.164;11.572;2022-07-23T15:41:38;9.23;;;6.18;;
16600;SDS011;34891;48.164;11.572;2022-07-23T15:46:53;11.30;;;6.75;;
16600;SDS011;34891;48.164;11.572;2022-07-23T15:52:11;10.43;;;6.47;;
16600;SDS011;34891;48.164;11.572;2022-07-23T16:03:17;9.13;;;6.68;;
16600;SDS011;34891;48.164;11.572;2022-07-23T16:08:27;9.77;;;6.47;;
16600;SDS011;34891;48.164;11.572;2022-07-23T16:13:40;7.68;;;5.72;;
16600;SDS011;34891;48.164;11.572;2022-07-23T16:18:56;11.65;;;6.85;;
16600;SDS011;34891;48.164;11.572;2022-07-23T16:24:12;10.90;;;6.50;;
16600;SDS011;34891;48.164;11.572;2022-07-23T16:29:33;10.32;;;6.63;;
16600;SDS011;34891;48.164;11.572;2022-07-23T16:34:46;10.10;;;6.90;;
16600;SDS011;34891;48.164;11.572;2022-07-23T16:40:01;10.07;;;6.38;;
16600;SDS011;34891;48.164;11.572;2022-07-23T16:45:20;12.20;;;7.10;;
16600;SDS011;34891;48.164;11.572;2022-07-23T16:50:37;8.77;;;5.03;;
16600;SDS011;34891;48.164;11.572;2022-07-23T16:55:54;11.07;;;7.05;;
16600;SDS011;34891;48.164;11.572;2022-07-23T17:00:59;10.65;;;7.45;;
16600;SDS011;34891;48.164;11.572;2022-07-23T17:06:29;8.23;;;4.93;;
16600;SDS011;34891;48.164;11.572;2022-07-23T17:11:47;11.70;;;7.00;;
16600;SDS011;34891;48.164;11.572;2022-07-23T17:17:04;13.45;;;7.60;;
16600;SDS011;34891;48.164;11.572;2022-07-23T17:22:12;10.90;;;8.20;;
16600;SDS011;34891;48.164;11.572;2022-07-23T17:27:17;10.85;;;7.68;;
16600;SDS011;34891;48.164;11.572;2022-07-23T17:32:27;12.07;;;7.75;;
16600;SDS011;34891;48.164;11.572;2022-07-23T17:37:49;14.30;;;7.82;;
16600;SDS011;34891;48.164;11.572;2022-07-23T17:42:54;13.02;;;7.55;;
16600;SDS011;34891;48.164;11.572;2022-07-23T17:48:12;11.02;;;7.30;;
16600;SDS011;34891;48.164;11.572;2022-07-23T17:53:20;14.07;;;7.80;;
16600;SDS011;34891;48.164;11.572;2022-07-23T17:58:29;9.13;;;5.82;;
16600;SDS011;34891;48.164;11.572;2022-07-23T18:03:53;12.70;;;8.02;;
16600;SDS011;34891;48.164;11.572;2022-07-23T18:09:04;11.32;;;7.88;;
16600;SDS011;34891;48.164;11.572;2022-07-23T18:14:18;12.30;;;7.65;;
16600;SDS011;34891;48.164;11.572;2022-07-23T18:19:22;13.07;;;8.70;;
16600;SDS011;34891;48.164;11.572;2022-07-23T18:30:08;13.00;;;8.33;;
16600;SDS011;34891;48.164;11.572;2022-07-23T18:35:13;15.57;;;8.93;;
16600;SDS011;34891;48.164;11.572;2022-07-23T18:40:26;14.82;;;8.73;;
16600;SDS011;34891;48.164;11.572;2022-07-23T18:45:34;14.25;;;8.73;;
16600;SDS011;34891;48.164;11.572;2022-07-23T18:50:38;12.20;;;8.10;;
16600;SDS011;34891;48.164;11.572;2022-07-23T18:55:53;14.30;;;9.73;;
16600;SDS011;34891;48.164;11.572;2022-07-23T19:01:12;11.18;;;7.28;;
16600;SDS011;34891;48.164;11.572;2022-07-23T19:06:19;11.88;;;7.22;;
16600;SDS011;34891;48.164;11.572;2022-07-23T19:11:25;12.10;;;8.35;;
16600;SDS011;34891;48.164;11.572;2022-07-23T19:16:40;15.95;;;7.35;;
16600;SDS011;34891;48.164;11.572;2022-07-23T19:21:47;14.80;;;8.38;;
16600;SDS011;34891;48.164;11.572;2022-07-23T19:27:03;13.50;;;9.35;;
16600;SDS011;34891;48.164;11.572;2022-07-23T19:32:15;16.48;;;10.18;;
16600;SDS011;34891;48.164;11.572;2022-07-23T19:37:25;14.73;;;8.03;;
16600;SDS011;34891;48.164;11.572;2022-07-23T19:42:36;12.45;;;8.27;;
16600;SDS011;34891;48.164;11.572;2022-07-23T19:47:57;12.63;;;8.23;;
16600;SDS011;34891;48.164;11.572;2022-07-23T19:53:02;11.25;;;6.97;;
16600;SDS011;34891;48.164;11.572;2022-07-23T19:58:09;10.52;;;7.15;;
16600;SDS011;34891;48.164;11.572;2022-07-23T20:03:19;12.60;;;6.95;;
16600;SDS011;34891;48.164;11.572;2022-07-23T20:08:28;11.40;;;6.70;;
16600;SDS011;34891;48.164;11.572;2022-07-23T20:13:38;10.85;;;6.80;;
16600;SDS011;34891;48.164;11.572;2022-07-23T20:18:44;10.10;;;6.72;;
16600;SDS011;34891;48.164;11.572;2022-07-23T20:23:51;10.60;;;6.10;;
16600;SDS011;34891;48.164;11.572;2022-07-23T20:28:55;9.13;;;5.90;;
16600;SDS011;34891;48.164;11.572;2022-07-23T20:34:03;10.05;;;6.53;;
16600;SDS011;34891;48.164;11.572;2022-07-23T20:39:12;11.02;;;6.40;;
16600;SDS011;34891;48.164;11.572;2022-07-23T20:44:22;12.45;;;7.03;;
16600;SDS011;34891;48.164;11.572;2022-07-23T20:49:33;11.77;;;7.00;;
16600;SDS011;34891;48.164;11.572;2022-07-23T20:54:40;10.80;;;6.80;;
16600;SDS011;34891;48.164;11.572;2022-07-23T20:59:44;10.52;;;6.50;;
16600;SDS011;34891;48.164;11.572;2022-07-23T21:04:51;11.65;;;6.57;;
16600;SDS011;34891;48.164;11.572;2022-07-23T21:09:57;9.75;;;5.97;;
16600;SDS011;34891;48.164;11.572;2022-07-23T21:15:01;15.27;;;8.57;;
16600;SDS011;34891;48.164;11.572;2022-07-23T21:20:12;11.15;;;6.55;;
16600;SDS011;34891;48.164;11.572;2022-07-23T21:25:17;10.18;;;6.93;;
16600;SDS011;34891;48.164;11.572;2022-07-23T21:30:25;17.02;;;9.05;;
16600;SDS011;34891;48.164;11.572;2022-07-23T21:35:33;13.65;;;8.07;;
16600;SDS011;34891;48.164;11.572;2022-07-23T21:40:41;12.43;;;7.20;;
16600;SDS011;34891;48.164;11.572;2022-07-23T21:45:46;12.02;;;7.65;;
16600;SDS011;34891;48.164;11.572;2022-07-23T21:51:07;12.68;;;7.35;;
16600;SDS011;34891;48.164;11.572;2022-07-23T21:56:11;11.57;;;7.20;;
16600;SDS011;34891;48.164;11.572;2022-07-23T22:01:16;12.18;;;7.40;;
16600;SDS011;34891;48.164;11.572;2022-07-23T22:06:28;12.75;;;7.18;;
16600;SDS011;34891;48.164;11.572;2022-07-23T22:11:39;12.65;;;7.57;;
16600;SDS011;34891;48.164;11.572;2022-07-23T22:16:48;12.23;;;7.63;;
16600;SDS011;34891;48.164;11.572;2022-07-23T22:21:56;12.73;;;7.22;;
16600;SDS011;34891;48.164;11.572;2022-07-23T22:27:01;13.48;;;7.85;;
16600;SDS011;34891;48.164;11.572;2022-07-23T22:32:07;12.60;;;8.15;;
16600;SDS011;34891;48.164;11.572;2022-07-23T22:37:24;13.25;;;7.80;;
16600;SDS011;34891;48.164;11.572;2022-07-23T22:42:28;12.98;;;7.75;;
16600;SDS011;34891;48.164;11.572;2022-07-23T22:47:34;11.10;;;7.32;;
16600;SDS011;34891;48.164;11.572;2022-07-23T22:58:01;16.77;;;8.30;;
16600;SDS011;34891;48.164;11.572;2022-07-23T23:03:06;13.35;;;7.63;;
16600;SDS011;34891;48.164;11.572;2022-07-23T23:08:17;13.43;;;8.13;;
16600;SDS011;34891;48.164;11.572;2022-07-23T23:13:29;14.75;;;8.95;;
16600;SDS011;34891;48.164;11.572;2022-07-23T23:18:33;14.55;;;8.10;;
16600;SDS011;34891;48.164;11.572;2022-07-23T23:23:43;14.00;;;8.18;;
16600;SDS011;34891;48.164;11.572;2022-07-23T23:29:18;12.63;;;7.90;;
16600;SDS011;34891;48.164;11.572;2022-07-23T23:34:21;13.55;;;8.00;;
16600;SDS011;34891;48.164;11.572;2022-07-23T23:39:28;12.35;;;8.13;;
16600;SDS011;34891;48.164;11.572;2022-07-23T23:44:47;14.00;;;7.82;;
16600;SDS011;34891;48.164;11.572;2022-07-23T23:49:50;12.25;;;7.82;;
16600;SDS011;34891;48.164;11.572;2022-07-23T23:54:53;14.13;;;8.40;;
